createdAt,value
2018-10-01T00:01:43.330Z,77.70
2018-10-01T00:04:11.658Z,77.70
2018-10-01T00:06:39.254Z,77.60
2018-10-01T00:09:06.819Z,76.80
2018-10-01T00:11:34.378Z,76.90
2018-10-01T00:14:02.000Z,77.30
2018-10-01T00:16:29.554Z,76.70
2018-10-01T00:18:57.111Z,76.90
2018-10-01T00:21:33.790Z,77.20
2018-10-01T00:24:01.347Z,77.70
2018-10-01T00:26:28.906Z,78.10
2018-10-01T00:28:56.901Z,78.40
2018-10-01T00:31:24.466Z,78.50
2018-10-01T00:33:52.030Z,78.80
2018-10-01T00:36:19.624Z,78.90
2018-10-01T00:38:47.946Z,79.30
2018-10-01T00:41:15.568Z,79.30
2018-10-01T00:43:43.891Z,79.60
2018-10-01T00:46:11.767Z,79.60
2018-10-01T00:48:39.359Z,79.70
2018-10-01T00:51:06.929Z,79.80
2018-10-01T00:53:34.481Z,79.90
2018-10-01T00:56:02.068Z,80.40
2018-10-01T00:58:31.589Z,79.80
2018-10-01T01:00:58.013Z,79.70
2018-10-01T01:03:26.338Z,79.90
2018-10-01T01:05:53.910Z,79.90
2018-10-01T01:08:21.523Z,80.20
2018-10-01T01:10:49.084Z,80.50
2018-10-01T01:13:16.643Z,80.70
2018-10-01T01:15:44.227Z,80.90
2018-10-01T01:18:11.790Z,81.00
2018-10-01T01:20:40.182Z,81.20
2018-10-01T01:23:07.750Z,81.40
2018-10-01T01:25:35.309Z,82.20
2018-10-01T01:28:02.908Z,81.40
2018-10-01T01:30:31.234Z,82.30
2018-10-01T01:32:58.842Z,81.50
2018-10-01T01:35:26.404Z,81.80
2018-10-01T01:37:53.993Z,81.70
2018-10-01T01:40:21.590Z,81.70
2018-10-01T01:42:49.146Z,81.60
2018-10-01T01:45:16.710Z,81.70
2018-10-01T01:47:44.294Z,81.70
2018-10-01T01:50:11.860Z,81.80
2018-10-01T01:52:39.456Z,82.00
2018-10-01T01:55:07.010Z,82.20
2018-10-01T01:57:35.332Z,82.10
2018-10-01T02:00:02.926Z,82.10
2018-10-01T02:02:30.493Z,82.20
2018-10-01T02:04:58.076Z,82.20
2018-10-01T02:07:26.406Z,82.40
2018-10-01T02:09:54.372Z,82.30
2018-10-01T02:12:21.933Z,81.40
2018-10-01T02:14:49.497Z,81.40
2018-10-01T02:17:17.091Z,81.30
2018-10-01T02:19:44.654Z,81.50
2018-10-01T02:22:12.262Z,81.60
2018-10-01T02:24:40.051Z,81.80
2018-10-01T02:27:07.612Z,82.40
2018-10-01T02:29:35.195Z,81.60
2018-10-01T02:32:02.756Z,81.60
2018-10-01T02:34:30.353Z,81.70
2018-10-01T02:36:57.916Z,81.60
2018-10-01T02:39:25.467Z,82.20
2018-10-01T02:41:53.060Z,81.50
2018-10-01T02:44:20.617Z,81.50
2018-10-01T02:46:48.176Z,81.60
2018-10-01T02:49:15.777Z,81.90
2018-10-01T02:51:43.335Z,82.30
2018-10-01T02:54:10.930Z,82.60
2018-10-01T02:56:38.492Z,83.00
2018-10-01T02:59:07.377Z,84.70
2018-10-01T03:01:34.937Z,84.60
2018-10-01T03:04:03.262Z,83.50
2018-10-01T03:06:30.847Z,83.50
2018-10-01T03:08:58.407Z,83.60
2018-10-01T03:11:26.007Z,83.70
2018-10-01T03:13:54.340Z,84.20
2018-10-01T03:16:21.897Z,84.10
2018-10-01T03:18:49.509Z,84.20
2018-10-01T03:21:17.099Z,84.20
2018-10-01T03:23:44.656Z,84.20
2018-10-01T03:26:12.212Z,84.60
2018-10-01T03:28:39.773Z,83.90
2018-10-01T03:31:07.363Z,83.80
2018-10-01T03:33:34.922Z,83.70
2018-10-01T03:36:02.899Z,83.70
2018-10-01T03:38:31.781Z,83.70
2018-10-01T03:40:58.025Z,83.60
2018-10-01T03:43:25.620Z,83.60
2018-10-01T03:45:53.956Z,84.30
2018-10-01T03:48:21.556Z,84.30
2018-10-01T03:50:49.109Z,83.50
2018-10-01T03:53:16.679Z,83.40
2018-10-01T03:55:44.302Z,83.70
2018-10-01T03:58:11.950Z,84.70
2018-10-01T04:00:40.252Z,84.00
2018-10-01T04:03:07.901Z,83.90
2018-10-01T04:05:36.695Z,84.30
2018-10-01T04:08:04.257Z,84.30
2018-10-01T04:10:31.861Z,84.50
2018-10-01T04:13:00.258Z,85.20
2018-10-01T04:15:28.167Z,84.90
2018-10-01T04:17:55.762Z,85.00
2018-10-01T04:20:23.347Z,85.10
2018-10-01T04:22:51.802Z,85.40
2018-10-01T04:25:19.315Z,85.20
2018-10-01T04:27:46.882Z,85.80
2018-10-01T04:30:14.485Z,85.00
2018-10-01T04:32:42.053Z,84.90
2018-10-01T04:35:09.618Z,85.00
2018-10-01T04:37:38.003Z,85.50
2018-10-01T04:40:06.339Z,86.20
2018-10-01T04:42:33.910Z,85.60
2018-10-01T04:45:01.686Z,85.80
2018-10-01T04:47:29.255Z,86.00
2018-10-01T04:49:56.838Z,86.70
2018-10-01T04:52:24.442Z,86.10
2018-10-01T04:54:52.059Z,84.90
2018-10-01T04:57:20.386Z,83.90
2018-10-01T04:59:57.452Z,84.60
2018-10-01T05:02:25.003Z,84.00
2018-10-01T05:04:52.568Z,84.40
2018-10-01T05:07:20.688Z,84.70
2018-10-01T05:09:48.262Z,84.90
2018-10-01T05:12:15.829Z,85.20
2018-10-01T05:14:43.497Z,85.40
2018-10-01T05:17:11.007Z,85.70
2018-10-01T05:19:38.584Z,85.90
2018-10-01T05:22:06.231Z,86.00
2018-10-01T05:24:33.805Z,86.00
2018-10-01T05:27:01.397Z,86.00
2018-10-01T05:29:28.986Z,86.00
2018-10-01T05:31:57.313Z,86.00
2018-10-01T05:34:24.892Z,86.00
2018-10-01T05:36:52.537Z,86.00
2018-10-01T05:39:20.103Z,86.40
2018-10-01T05:41:47.671Z,85.70
2018-10-01T05:44:15.985Z,85.40
2018-10-01T05:46:43.550Z,85.20
2018-10-01T05:49:11.184Z,84.50
2018-10-01T05:51:39.023Z,84.90
2018-10-01T05:54:06.651Z,85.30
2018-10-01T05:56:34.168Z,85.60
2018-10-01T05:59:01.764Z,85.90
2018-10-01T06:01:29.328Z,86.10
2018-10-01T06:03:56.905Z,86.20
2018-10-01T06:06:25.014Z,86.30
2018-10-01T06:08:52.573Z,86.30
2018-10-01T06:11:20.138Z,86.20
2018-10-01T06:13:48.305Z,86.00
2018-10-01T06:16:15.873Z,86.10
2018-10-01T06:18:43.445Z,85.70
2018-10-01T06:21:11.059Z,85.80
2018-10-01T06:23:38.620Z,85.70
2018-10-01T06:26:06.226Z,85.80
2018-10-01T06:28:33.776Z,85.00
2018-10-01T06:31:01.354Z,84.40
2018-10-01T06:33:29.196Z,84.20
2018-10-01T06:35:57.060Z,84.20
2018-10-01T06:38:24.623Z,83.30
2018-10-01T06:40:52.250Z,83.40
2018-10-01T06:43:19.800Z,83.50
2018-10-01T06:45:48.131Z,83.60
2018-10-01T06:48:15.787Z,83.50
2018-10-01T06:50:43.365Z,83.30
2018-10-01T06:53:10.921Z,83.30
2018-10-01T06:55:38.573Z,83.50
2018-10-01T06:58:06.145Z,83.20
2018-10-01T07:00:33.732Z,83.10
2018-10-01T07:03:01.311Z,82.40
2018-10-01T07:05:29.703Z,82.30
2018-10-01T07:07:58.080Z,82.30
2018-10-01T07:10:25.645Z,82.30
2018-10-01T07:12:53.211Z,82.30
2018-10-01T07:15:20.884Z,82.50
2018-10-01T07:17:48.446Z,82.40
2018-10-01T07:20:16.018Z,82.50
2018-10-01T07:22:43.674Z,82.50
2018-10-01T07:25:11.184Z,82.50
2018-10-01T07:27:38.826Z,82.30
2018-10-01T07:30:06.392Z,81.20
2018-10-01T07:32:33.964Z,81.20
2018-10-01T07:35:01.584Z,80.60
2018-10-01T07:37:29.149Z,80.50
2018-10-01T07:39:56.705Z,79.70
2018-10-01T07:42:24.317Z,79.00
2018-10-01T07:44:51.932Z,78.90
2018-10-01T07:47:20.226Z,79.30
2018-10-01T07:49:48.308Z,79.30
2018-10-01T07:52:15.883Z,79.40
2018-10-01T07:54:43.457Z,79.60
2018-10-01T07:57:11.929Z,79.20
2018-10-01T07:59:39.441Z,79.20
2018-10-01T08:02:07.012Z,79.20
2018-10-01T08:04:34.623Z,79.00
2018-10-01T08:07:02.952Z,77.70
2018-10-01T08:09:30.615Z,78.30
2018-10-01T08:11:58.134Z,77.10
2018-10-01T08:14:26.533Z,77.10
2018-10-01T08:16:54.048Z,77.00
2018-10-01T08:19:21.710Z,77.00
2018-10-01T08:21:49.277Z,77.00
2018-10-01T08:24:16.840Z,77.00
2018-10-01T08:26:44.900Z,76.70
2018-10-01T08:29:12.475Z,76.50
2018-10-01T08:31:40.310Z,76.40
2018-10-01T08:34:08.289Z,76.10
2018-10-01T08:36:35.866Z,75.30
2018-10-01T08:39:03.492Z,75.10
2018-10-01T08:41:31.842Z,74.80
2018-10-01T08:43:59.364Z,73.50
2018-10-01T08:46:26.911Z,73.20
2018-10-01T08:48:54.558Z,73.60
2018-10-01T08:51:22.115Z,73.40
2018-10-01T08:53:49.675Z,73.10
2018-10-01T08:56:17.318Z,73.20
2018-10-01T08:58:44.883Z,73.20
2018-10-01T09:01:12.466Z,73.70
2018-10-01T09:03:40.064Z,73.90
2018-10-01T09:06:07.626Z,74.00
2018-10-01T09:08:35.267Z,73.80
2018-10-01T09:11:03.267Z,73.20
2018-10-01T09:13:30.795Z,73.30
2018-10-01T09:15:58.357Z,73.20
2018-10-01T09:18:26.684Z,73.30
2018-10-01T09:20:55.018Z,72.90
2018-10-01T09:23:22.578Z,72.80
2018-10-01T09:25:50.189Z,72.50
2018-10-01T09:28:18.920Z,71.40
2018-10-01T09:30:46.483Z,71.40
2018-10-01T09:33:14.114Z,70.10
2018-10-01T09:35:41.678Z,70.20
2018-10-01T09:38:09.260Z,69.60
2018-10-01T09:40:36.930Z,69.00
2018-10-01T09:43:04.694Z,68.40
2018-10-01T09:45:32.263Z,68.50
2018-10-01T09:47:59.888Z,67.20
2018-10-01T09:50:27.465Z,67.50
2018-10-01T09:52:55.017Z,67.30
2018-10-01T09:55:22.622Z,66.20
2018-10-01T09:57:50.187Z,65.50
2018-10-01T10:00:17.746Z,65.30
2018-10-01T10:02:45.382Z,64.90
2018-10-01T10:05:12.945Z,63.90
2018-10-01T10:07:40.506Z,63.00
2018-10-01T10:10:08.151Z,62.80
2018-10-01T10:12:36.449Z,62.80
2018-10-01T10:15:04.014Z,62.70
2018-10-01T10:17:32.237Z,62.60
2018-10-01T10:20:00.576Z,62.50
2018-10-01T10:22:28.177Z,62.50
2018-10-01T10:24:56.309Z,62.70
2018-10-01T10:27:23.880Z,62.70
2018-10-01T10:29:51.443Z,62.50
2018-10-01T10:32:19.075Z,62.20
2018-10-01T10:34:46.624Z,61.70
2018-10-01T10:37:14.191Z,61.00
2018-10-01T10:39:44.161Z,60.20
2018-10-01T10:42:11.759Z,60.00
2018-10-01T10:44:40.119Z,59.00
2018-10-01T10:47:07.702Z,58.90
2018-10-01T10:49:35.259Z,59.00
2018-10-01T10:52:02.824Z,58.80
2018-10-01T10:54:31.348Z,58.40
2018-10-01T10:56:58.965Z,58.20
2018-10-01T10:59:26.484Z,58.20
2018-10-01T11:01:54.544Z,56.90
2018-10-01T11:04:22.099Z,57.10
2018-10-01T11:06:49.659Z,57.00
2018-10-01T11:09:17.343Z,57.10
2018-10-01T11:11:44.867Z,57.60
2018-10-01T11:14:12.598Z,58.00
2018-10-01T11:16:40.079Z,58.20
2018-10-01T11:19:07.808Z,58.50
2018-10-01T11:21:35.310Z,58.20
2018-10-01T11:24:02.834Z,58.30
2018-10-01T11:26:31.187Z,57.80
2018-10-01T11:28:59.209Z,57.70
2018-10-01T11:31:26.778Z,57.90
2018-10-01T11:33:55.076Z,58.50
2018-10-01T11:36:22.634Z,58.40
2018-10-01T11:38:50.247Z,58.50
2018-10-01T11:41:18.577Z,58.50
2018-10-01T11:43:46.149Z,58.40
2018-10-01T11:46:13.761Z,57.90
2018-10-01T11:48:41.319Z,57.80
2018-10-01T11:51:09.683Z,57.80
2018-10-01T11:53:37.304Z,58.40
2018-10-01T11:56:04.870Z,57.10
2018-10-01T11:58:32.428Z,56.80
2018-10-01T12:01:00.399Z,56.10
2018-10-01T12:03:27.969Z,56.00
2018-10-01T12:05:55.532Z,55.70
2018-10-01T12:08:23.517Z,56.00
2018-10-01T12:10:51.077Z,56.90
2018-10-01T12:13:19.403Z,57.50
2018-10-01T12:15:47.141Z,57.50
2018-10-01T12:18:14.591Z,57.80
2018-10-01T12:20:42.917Z,58.80
2018-10-01T12:23:10.982Z,58.60
2018-10-01T12:25:38.558Z,58.60
2018-10-01T12:28:06.125Z,58.60
2018-10-01T12:30:34.526Z,58.60
2018-10-01T12:33:02.089Z,58.70
2018-10-01T12:35:29.646Z,58.10
2018-10-01T12:37:57.821Z,57.40
2018-10-01T12:40:25.382Z,56.40
2018-10-01T12:42:52.990Z,55.40
2018-10-01T12:45:21.989Z,56.40
2018-10-01T12:47:49.495Z,55.90
2018-10-01T12:50:17.094Z,58.00
2018-10-01T12:52:44.666Z,59.20
2018-10-01T12:55:12.229Z,59.80
2018-10-01T12:57:39.884Z,60.60
2018-10-01T13:00:07.765Z,61.20
2018-10-01T13:02:35.331Z,62.80
2018-10-01T13:05:02.928Z,63.60
2018-10-01T13:07:31.824Z,63.60
2018-10-01T13:09:59.392Z,63.90
2018-10-01T13:12:27.015Z,63.70
2018-10-01T13:14:54.567Z,62.30
2018-10-01T13:17:22.130Z,61.60
2018-10-01T13:19:49.723Z,62.50
2018-10-01T13:22:17.342Z,70.00
2018-10-01T13:24:45.063Z,72.50
2018-10-01T13:27:13.242Z,78.00
2018-10-01T13:29:40.842Z,78.00
2018-10-01T13:32:08.492Z,80.30
2018-10-01T13:34:35.973Z,82.00
2018-10-01T13:37:03.588Z,83.30
2018-10-01T13:39:31.143Z,84.60
2018-10-01T13:41:58.722Z,85.40
2018-10-01T13:44:27.242Z,85.80
2018-10-01T13:46:54.745Z,87.50
2018-10-01T13:49:22.315Z,88.50
2018-10-01T13:51:49.922Z,87.20
2018-10-01T13:54:17.625Z,86.60
2018-10-01T13:56:45.042Z,86.80
2018-10-01T13:59:12.659Z,87.50
2018-10-01T14:01:40.302Z,87.70
2018-10-01T14:04:07.794Z,87.80
2018-10-01T14:06:35.423Z,86.90
2018-10-01T14:09:02.988Z,87.60
2018-10-01T14:11:30.555Z,86.60
2018-10-01T14:13:58.314Z,85.50
2018-10-01T14:16:25.743Z,84.00
2018-10-01T14:18:53.314Z,83.40
2018-10-01T14:21:20.957Z,83.60
2018-10-01T14:23:48.520Z,82.40
2018-10-01T14:26:16.091Z,81.10
2018-10-01T14:28:43.747Z,80.50
2018-10-01T14:31:11.383Z,81.10
2018-10-01T14:33:38.882Z,79.90
2018-10-01T14:36:07.465Z,79.50
2018-10-01T14:38:34.949Z,78.90
2018-10-01T14:41:02.512Z,79.30
2018-10-01T14:43:30.686Z,79.50
2018-10-01T14:45:58.254Z,79.30
2018-10-01T14:48:25.843Z,80.60
2018-10-01T14:50:53.436Z,78.90
2018-10-01T14:53:21.003Z,78.10
2018-10-01T14:55:48.567Z,76.80
2018-10-01T14:58:16.650Z,76.00
2018-10-01T15:00:44.954Z,75.80
2018-10-01T15:03:12.513Z,75.80
2018-10-01T15:05:41.141Z,75.70
2018-10-01T15:08:08.662Z,76.40
2018-10-01T15:10:36.279Z,76.60
2018-10-01T15:13:03.845Z,76.70
2018-10-01T15:15:31.407Z,76.80
2018-10-01T15:17:58.999Z,77.50
2018-10-01T15:20:26.608Z,76.70
2018-10-01T15:22:54.942Z,75.90
2018-10-01T15:25:22.509Z,75.90
2018-10-01T15:27:50.979Z,76.10
2018-10-01T15:30:18.552Z,75.80
2018-10-01T15:32:46.111Z,75.40
2018-10-01T15:35:13.733Z,75.40
2018-10-01T15:37:41.290Z,75.00
2018-10-01T15:40:08.857Z,75.10
2018-10-01T15:42:36.887Z,76.30
2018-10-01T15:45:04.445Z,77.30
2018-10-01T15:47:32.014Z,78.00
2018-10-01T15:50:01.630Z,78.70
2018-10-01T15:52:29.870Z,79.60
2018-10-01T15:54:57.428Z,79.50
2018-10-01T15:57:25.697Z,80.10
2018-10-01T15:59:53.186Z,80.10
2018-10-01T16:02:20.759Z,79.80
2018-10-01T16:04:49.141Z,78.10
2018-10-01T16:07:17.476Z,78.60
2018-10-01T16:09:45.035Z,78.60
2018-10-01T16:12:12.643Z,77.90
2018-10-01T16:14:40.203Z,77.60
2018-10-01T16:17:08.525Z,77.20
2018-10-01T16:19:36.865Z,77.10
2018-10-01T16:22:05.211Z,77.30
2018-10-01T16:24:32.780Z,77.00
2018-10-01T16:27:00.417Z,77.20
2018-10-01T16:29:27.998Z,77.40
2018-10-01T16:31:55.550Z,77.20
2018-10-01T16:34:23.622Z,76.60
2018-10-01T16:36:51.450Z,76.40
2018-10-01T16:39:19.005Z,76.50
2018-10-01T16:41:46.657Z,76.80
2018-10-01T16:44:14.579Z,76.90
2018-10-01T16:46:42.142Z,76.70
2018-10-01T16:49:10.288Z,76.60
2018-10-01T16:51:37.835Z,76.50
2018-10-01T16:54:05.398Z,76.60
2018-10-01T16:56:33.822Z,76.50
2018-10-01T16:59:01.391Z,76.50
2018-10-01T17:01:28.966Z,76.70
2018-10-01T17:03:56.602Z,76.70
2018-10-01T17:06:24.166Z,76.90
2018-10-01T17:08:51.736Z,77.20
2018-10-01T17:11:19.354Z,76.40
2018-10-01T17:13:46.926Z,76.20
2018-10-01T17:16:14.524Z,76.10
2018-10-01T17:18:42.592Z,75.60
2018-10-01T17:21:10.159Z,75.50
2018-10-01T17:23:37.756Z,75.80
2018-10-01T17:26:06.152Z,76.20
2018-10-01T17:28:33.715Z,76.10
2018-10-01T17:31:01.285Z,76.00
2018-10-01T17:33:28.897Z,76.30
2018-10-01T17:35:56.456Z,76.40
2018-10-01T17:38:24.459Z,76.00
2018-10-01T17:40:52.021Z,76.10
2018-10-01T17:43:19.582Z,76.90
2018-10-01T17:45:47.147Z,76.10
2018-10-01T17:48:15.371Z,75.60
2018-10-01T17:50:42.938Z,74.70
2018-10-01T17:53:10.502Z,74.00
2018-10-01T17:55:38.159Z,73.60
2018-10-01T17:58:05.720Z,73.50
2018-10-01T18:00:33.279Z,73.50
2018-10-01T18:03:01.856Z,73.90
2018-10-01T18:05:29.425Z,74.10
2018-10-01T18:07:57.141Z,74.10
2018-10-01T18:10:24.798Z,74.40
2018-10-01T18:12:53.127Z,74.50
2018-10-01T18:15:20.696Z,74.50
2018-10-01T18:17:48.345Z,74.50
2018-10-01T18:20:15.859Z,74.90
2018-10-01T18:22:43.437Z,74.80
2018-10-01T18:25:12.162Z,74.50
2018-10-01T18:27:39.727Z,74.50
2018-10-01T18:30:07.338Z,74.60
2018-10-01T18:32:34.902Z,74.90
2018-10-01T18:35:02.465Z,74.40
2018-10-01T18:37:30.080Z,74.10
2018-10-01T18:39:57.656Z,74.20
2018-10-01T18:42:25.278Z,74.50
2018-10-01T18:44:53.552Z,74.70
2018-10-01T18:47:21.160Z,75.30
2018-10-01T18:49:48.788Z,75.70
2018-10-01T18:52:16.357Z,75.50
2018-10-01T18:54:44.008Z,75.90
2018-10-01T18:57:11.562Z,76.20
2018-10-01T18:59:39.121Z,77.40
2018-10-01T19:02:06.770Z,77.00
2018-10-01T19:04:34.374Z,77.20
2018-10-01T19:07:01.891Z,77.30
2018-10-01T19:09:29.504Z,76.90
2018-10-01T19:11:57.140Z,77.10
2018-10-01T19:14:24.680Z,77.10
2018-10-01T19:16:52.557Z,77.60
2018-10-01T19:19:20.113Z,77.10
2018-10-01T19:21:47.673Z,77.10
2018-10-01T19:24:15.759Z,77.40
2018-10-01T19:26:43.329Z,77.50
2018-10-01T19:29:10.868Z,77.40
2018-10-01T19:31:38.545Z,77.70
2018-10-01T19:34:06.313Z,77.80
2018-10-01T19:36:33.881Z,77.60
2018-10-01T19:39:01.570Z,77.80
2018-10-01T19:41:30.223Z,77.90
2018-10-01T19:43:57.785Z,77.90
2018-10-01T19:46:25.376Z,78.00
2018-10-01T19:48:52.952Z,78.20
2018-10-01T19:51:20.569Z,78.50
2018-10-01T19:53:48.175Z,78.90
2018-10-01T19:56:15.726Z,78.90
2018-10-01T19:58:43.310Z,79.10
2018-10-01T20:01:10.928Z,79.90
2018-10-01T20:03:38.494Z,79.10
2018-10-01T20:06:06.204Z,79.00
2018-10-01T20:08:34.321Z,78.90
2018-10-01T20:11:01.924Z,78.50
2018-10-01T20:13:29.437Z,78.10
2018-10-01T20:15:58.474Z,78.20
2018-10-01T20:18:26.009Z,78.40
2018-10-01T20:20:53.578Z,78.60
2018-10-01T20:23:21.202Z,78.90
2018-10-01T20:25:48.820Z,79.30
2018-10-01T20:28:16.469Z,79.70
2018-10-01T20:30:44.321Z,79.30
2018-10-01T20:33:11.877Z,79.40
2018-10-01T20:35:39.558Z,79.60
2018-10-01T20:38:07.056Z,80.00
2018-10-01T20:40:36.741Z,80.40
2018-10-01T20:43:04.304Z,80.70
2018-10-01T20:45:31.927Z,81.00
2018-10-01T20:47:59.572Z,82.00
2018-10-01T20:50:27.096Z,81.40
2018-10-01T20:52:54.770Z,81.30
2018-10-01T20:55:22.293Z,81.30
2018-10-01T20:57:49.844Z,81.40
2018-10-01T21:00:17.835Z,81.60
2018-10-01T21:02:45.400Z,81.60
2018-10-01T21:05:12.968Z,81.60
2018-10-01T21:07:42.271Z,83.30
2018-10-01T21:10:09.834Z,82.90
2018-10-01T21:12:38.174Z,82.00
2018-10-01T21:15:05.776Z,82.00
2018-10-01T21:17:36.147Z,82.00
2018-10-01T21:20:03.703Z,82.10
2018-10-01T21:22:31.772Z,82.10
2018-10-01T21:24:59.322Z,82.30
2018-10-01T21:27:26.837Z,82.40
2018-10-01T21:29:54.785Z,82.80
2018-10-01T21:32:22.351Z,82.30
2018-10-01T21:34:49.918Z,81.70
2018-10-01T21:37:17.538Z,81.90
2018-10-01T21:39:45.102Z,82.00
2018-10-01T21:42:12.661Z,82.90
2018-10-01T21:44:41.480Z,82.50
2018-10-01T21:47:09.039Z,82.70
2018-10-01T21:49:36.613Z,82.90
2018-10-01T21:52:04.208Z,83.20
2018-10-01T21:54:32.533Z,83.20
2018-10-01T21:57:00.097Z,83.20
2018-10-01T21:59:27.712Z,83.10
2018-10-01T22:01:56.083Z,83.90
2018-10-01T22:04:23.658Z,83.60
2018-10-01T22:06:51.286Z,83.80
2018-10-01T22:09:18.849Z,84.10
2018-10-01T22:11:46.406Z,84.30
2018-10-01T22:14:14.009Z,84.80
2018-10-01T22:16:42.343Z,85.80
2018-10-01T22:19:10.309Z,85.80
2018-10-01T22:21:37.901Z,86.20
2018-10-01T22:24:16.548Z,86.50
2018-10-01T22:26:45.074Z,86.70
2018-10-01T22:29:12.642Z,87.10
2018-10-01T22:31:40.223Z,87.30
2018-10-01T22:34:07.881Z,87.50
2018-10-01T22:36:35.488Z,87.50
2018-10-01T22:39:03.018Z,87.50
2018-10-01T22:41:31.386Z,87.10
2018-10-01T22:43:58.951Z,87.10
2018-10-01T22:46:26.517Z,87.00
2018-10-01T22:48:54.131Z,87.30
2018-10-01T22:51:21.689Z,86.70
2018-10-01T22:53:49.317Z,86.70
2018-10-01T22:56:18.053Z,86.90
2018-10-01T22:58:45.616Z,86.80
2018-10-01T23:01:13.174Z,86.80
2018-10-01T23:03:40.772Z,86.80
2018-10-01T23:06:08.605Z,87.00
2018-10-01T23:08:36.155Z,87.10
2018-10-01T23:11:04.967Z,87.30
2018-10-01T23:13:32.528Z,87.50
2018-10-01T23:16:00.090Z,87.70
2018-10-01T23:18:27.685Z,88.40
2018-10-01T23:20:55.325Z,87.60
2018-10-01T23:23:22.880Z,87.50
2018-10-01T23:25:50.462Z,86.90
2018-10-01T23:28:18.804Z,86.60
2018-10-01T23:30:46.355Z,86.50
2018-10-01T23:33:27.129Z,86.60
2018-10-01T23:35:54.677Z,85.90
2018-10-01T23:38:22.244Z,85.80
2018-10-01T23:40:49.866Z,85.80
2018-10-01T23:43:17.432Z,85.90
2018-10-01T23:45:45.759Z,86.70
2018-10-01T23:48:13.357Z,86.10
2018-10-01T23:50:40.961Z,86.10
2018-10-01T23:53:08.515Z,86.20
2018-10-01T23:55:36.515Z,86.40
2018-10-01T23:58:04.068Z,86.50
